Terminal Aerodrome Forecast
Issued by NWS

Home | Current Version | Previous Version | Text Only | Print | Product List | Glossary On
Versions: 1 2 3 4 5 6 7 8 9 10 11 12 13 14 15 16 17 18
000
FTUS43 KLSX 230752 AAA
TAFCPS
TAF AMD
KCPS 230752Z 2308/2406 10008KT P6SM VCSH BKN120
     FM231400 13009KT P6SM VCSH OVC045
     FM231700 13010KT P6SM OVC040
     FM232300 15010KT P6SM SCT200
     FM240300 16010KT P6SM SCT150 WS014/20045KT=

USA.gov is the U.S. government's official web portal to all federal, state and local government web resources and services.